Time;durP1;ratioP1;P1;durP2;ratioP2;P2;SDS_P1;SDS_P2;PMS_P1;PMS_P2;Temp;Humidity;BMP_temperature;BMP_pressure;BME280_temperature;BME280_humidity;BME280_pressure;Samples;Min_cycle;Max_cycle;Signal;HPM_P1;HPM_P2
2023/10/01 00:00:47;;;;;;;1.65;1.13;;;16.90;69.50;;;;;;5032591;28;20046;-70
2023/10/01 00:03:19;;;;;;;1.27;0.77;;;16.90;69.40;;;;;;5034757;28;20532;-70
2023/10/01 00:05:45;;;;;;;2.38;0.90;;;16.80;68.60;;;;;;5032939;28;20525;-70
2023/10/01 00:08:14;;;;;;;1.15;0.50;;;16.80;69.30;;;;;;5034784;28;20041;-70
2023/10/01 00:10:41;;;;;;;2.25;1.30;;;16.80;69.70;;;;;;5033405;28;20065;-70
2023/10/01 00:13:08;;;;;;;1.17;0.63;;;16.70;68.90;;;;;;5034382;28;20038;-70
2023/10/01 00:15:34;;;;;;;1.85;1.25;;;16.60;69.60;;;;;;5032680;28;20033;-70
2023/10/01 00:18:00;;;;;;;2.45;1.17;;;16.70;70.20;;;;;;5033145;28;20393;-70
2023/10/01 00:20:29;;;;;;;0.65;0.65;;;16.70;70.30;;;;;;5031656;28;20041;-70
2023/10/01 00:23:00;;;;;;;0.63;0.43;;;16.70;70.40;;;;;;5034100;28;20112;-70
2023/10/01 00:25:27;;;;;;;3.35;1.05;;;16.70;70.40;;;;;;5032594;28;20041;-70
2023/10/01 00:27:54;;;;;;;1.35;1.00;;;16.70;70.50;;;;;;5032226;28;20033;-70
2023/10/01 00:30:39;;;;;;;1.20;0.77;;;16.70;70.30;;;;;;5015219;28;20038;-70
2023/10/01 00:33:10;;;;;;;1.67;1.17;;;16.70;70.50;;;;;;5034004;28;20474;-70
2023/10/01 00:35:39;;;;;;;2.05;0.93;;;16.70;70.40;;;;;;5032483;28;20386;-70
2023/10/01 00:38:26;;;;;;;1.58;1.23;;;16.70;70.00;;;;;;5016601;28;20033;-70
2023/10/01 00:40:53;;;;;;;1.50;0.90;;;16.70;70.50;;;;;;5032786;28;20045;-70
2023/10/01 00:43:25;;;;;;;1.92;1.02;;;16.70;70.80;;;;;;5034057;28;20382;-70
2023/10/01 00:45:52;;;;;;;0.80;0.60;;;16.60;70.80;;;;;;5033577;28;20165;-70
2023/10/01 00:48:22;;;;;;;2.55;1.60;;;16.70;70.90;;;;;;5032910;28;20038;-70
2023/10/01 00:50:50;;;;;;;4.05;1.60;;;16.60;70.60;;;;;;5032787;28;20038;-70
2023/10/01 00:53:16;;;;;;;1.85;1.02;;;16.60;70.50;;;;;;5033846;28;20044;-70
2023/10/01 00:55:42;;;;;;;1.88;1.20;;;16.60;70.70;;;;;;5015014;28;20041;-70
2023/10/01 01:00:53;;;;;;;1.45;0.98;;;16.30;70.10;;;;;;5031390;28;20103;-71
2023/10/01 01:03:22;;;;;;;4.75;1.90;;;16.30;70.30;;;;;;5048727;28;20038;-70
2023/10/01 01:06:05;;;;;;;4.15;1.38;;;16.30;70.30;;;;;;5034014;28;20137;-70
2023/10/01 01:08:46;;;;;;;0.95;0.85;;;16.20;71.20;;;;;;5032305;28;20066;-70
2023/10/01 01:11:17;;;;;;;0.95;0.60;;;16.30;71.10;;;;;;5031123;28;20033;-70
2023/10/01 01:13:44;;;;;;;0.32;0.32;;;16.20;71.10;;;;;;5033060;28;20367;-70
2023/10/01 01:16:29;;;;;;;2.35;1.63;;;16.20;71.40;;;;;;5032581;28;20036;-70
2023/10/01 01:18:54;;;;;;;2.47;1.80;;;16.20;71.40;;;;;;5031566;28;20071;-70
2023/10/01 01:21:20;;;;;;;1.88;1.15;;;16.20;71.40;;;;;;5031971;28;20414;-70
2023/10/01 01:23:50;;;;;;;0.85;0.60;;;16.20;71.30;;;;;;5031915;28;20033;-70
2023/10/01 01:26:21;;;;;;;1.55;0.90;;;16.20;71.30;;;;;;5032594;28;20371;-70
2023/10/01 01:28:48;;;;;;;1.77;0.75;;;16.20;71.10;;;;;;5033059;28;20048;-70
2023/10/01 01:31:16;;;;;;;1.25;0.80;;;16.20;71.10;;;;;;5031276;28;20038;-70
2023/10/01 01:33:52;;;;;;;1.92;1.15;;;16.10;71.00;;;;;;5032172;28;20117;-70
2023/10/01 01:36:19;;;;;;;;;;;16.20;71.20;;;;;;5032492;28;20485;-70
2023/10/01 01:39:35;;;;;;;0.47;0.32;;;16.10;70.90;;;;;;5015368;28;20336;-70
2023/10/01 01:42:02;;;;;;;1.77;0.73;;;16.10;70.90;;;;;;5032503;28;20179;-70
2023/10/01 01:44:30;;;;;;;1.48;0.52;;;16.00;70.80;;;;;;5031886;28;20037;-70
2023/10/01 01:47:00;;;;;;;4.13;0.65;;;16.10;70.90;;;;;;5031537;28;20057;-70
2023/10/01 01:49:27;;;;;;;1.50;0.65;;;16.10;71.00;;;;;;5031764;28;20095;-70
2023/10/01 01:54:42;;;;;;;1.98;1.38;;;16.20;70.90;;;;;;5033377;28;20130;-70
2023/10/01 01:57:17;;;;;;;3.63;1.65;;;16.20;71.60;;;;;;5032428;28;20033;-70
2023/10/01 01:59:43;;;;;;;0.47;0.47;;;16.20;70.20;;;;;;5032872;28;20044;-70
2023/10/01 02:02:10;;;;;;;;;;;16.30;71.10;;;;;;5032644;28;20218;-71
2023/10/01 02:04:58;;;;;;;2.13;1.77;;;16.30;70.80;;;;;;5033269;28;19975;-70
2023/10/01 02:07:23;;;;;;;;;;;16.30;70.80;;;;;;5032574;28;20091;-70
2023/10/01 02:09:49;;;;;;;1.85;1.15;;;16.40;70.70;;;;;;5033136;28;19920;-70
2023/10/01 02:12:23;;;;;;;2.65;1.73;;;16.40;70.80;;;;;;5030831;28;20045;-70
2023/10/01 02:14:54;;;;;;;1.35;0.90;;;16.40;70.80;;;;;;5033203;28;20041;-71
2023/10/01 02:17:22;;;;;;;2.15;1.08;;;16.40;70.70;;;;;;5031168;28;20087;-70
2023/10/01 02:19:49;;;;;;;1.70;1.10;;;16.40;70.40;;;;;;5032789;28;20029;-71
2023/10/01 02:22:16;;;;;;;3.38;1.48;;;16.50;71.10;;;;;;5030628;28;20383;-70
2023/10/01 02:24:54;;;;;;;2.45;1.52;;;16.50;70.90;;;;;;5032915;28;20048;-71
2023/10/01 02:27:24;;;;;;;1.50;0.70;;;16.50;70.90;;;;;;5032027;28;20044;-70
2023/10/01 02:32:35;;;;;;;1.77;1.15;;;16.50;70.60;;;;;;5031153;28;20498;-70
2023/10/01 02:35:33;;;;;;;3.05;1.48;;;16.60;70.60;;;;;;5031178;28;20441;-70
2023/10/01 02:37:48;;;;;;;6.70;1.23;;;16.60;70.70;;;;;;5032313;28;20061;-70
2023/10/01 02:40:18;;;;;;;4.03;1.60;;;16.60;71.30;;;;;;5013206;28;20040;-70
2023/10/01 02:42:49;;;;;;;2.58;1.08;;;16.60;71.40;;;;;;5032035;28;20033;-70
2023/10/01 02:48:13;;;;;;;2.45;1.55;;;16.60;71.40;;;;;;5031057;28;20044;-70
2023/10/01 02:53:42;;;;;;;1.40;0.85;;;16.50;71.70;;;;;;5035080;28;20440;-70
2023/10/01 02:56:16;;;;;;;2.17;1.00;;;16.50;71.60;;;;;;5035508;28;20051;-71
2023/10/01 02:58:50;;;;;;;1.42;1.05;;;16.50;71.70;;;;;;5035662;28;20506;-70
2023/10/01 03:01:17;;;;;;;1.38;0.75;;;16.40;71.60;;;;;;5033511;28;20124;-71
2023/10/01 03:03:43;;;;;;;3.25;1.20;;;16.40;71.90;;;;;;5034378;28;20040;-71
2023/10/01 03:06:09;;;;;;;3.38;1.45;;;16.40;72.00;;;;;;5035292;28;20425;-71
2023/10/01 03:09:00;;;;;;;2.35;0.88;;;16.40;71.90;;;;;;5035573;28;20041;-71
2023/10/01 03:11:34;;;;;;;1.60;1.17;;;16.40;71.90;;;;;;5033218;28;20065;-71
2023/10/01 03:14:04;;;;;;;1.48;1.15;;;16.50;71.90;;;;;;5034448;28;20046;-71
2023/10/01 03:16:43;;;;;;;1.90;0.85;;;16.50;71.70;;;;;;5033751;28;20425;-70
2023/10/01 03:19:25;;;;;;;2.45;1.38;;;16.50;71.60;;;;;;5035605;28;20044;-70
2023/10/01 03:24:43;;;;;;;2.03;1.65;;;16.40;71.70;;;;;;5034298;28;20036;-70
2023/10/01 03:30:01;;;;;;;2.38;1.25;;;16.50;71.90;;;;;;5034178;28;20045;-70
2023/10/01 03:32:29;;;;;;;1.33;0.80;;;16.50;71.80;;;;;;5033094;28;20041;-70
2023/10/01 03:34:56;;;;;;;3.20;1.38;;;16.50;71.90;;;;;;5035581;28;20116;-70
2023/10/01 03:37:37;;;;;;;6.88;1.40;;;16.50;71.80;;;;;;5033377;28;20034;-70
2023/10/01 03:40:23;;;;;;;2.63;0.98;;;16.50;71.90;;;;;;5034361;28;20099;-71
2023/10/01 03:42:51;;;;;;;1.40;1.15;;;16.50;71.80;;;;;;5035101;28;20124;-71
2023/10/01 03:48:06;;;;;;;1.83;1.27;;;16.50;72.00;;;;;;5035031;28;20041;-70
2023/10/01 03:50:45;;;;;;;1.52;1.10;;;16.50;72.10;;;;;;5033655;28;20049;-70
2023/10/01 03:53:11;;;;;;;1.52;0.90;;;16.50;72.50;;;;;;5033703;28;20129;-71
2023/10/01 03:55:39;;;;;;;1.05;0.85;;;16.50;72.00;;;;;;5033077;28;20104;-70
2023/10/01 03:58:18;;;;;;;0.47;0.32;;;16.50;72.70;;;;;;5017137;28;20474;-70
2023/10/01 04:00:53;;;;;;;1.55;1.25;;;16.50;72.60;;;;;;5033642;28;20402;-70
2023/10/01 04:03:21;;;;;;;1.42;0.98;;;16.50;72.50;;;;;;5033583;28;20041;-71
2023/10/01 04:05:49;;;;;;;1.40;0.93;;;16.40;72.60;;;;;;5016441;28;20560;-71
2023/10/01 04:08:15;;;;;;;1.88;0.85;;;16.40;72.70;;;;;;5033284;28;20040;-70
2023/10/01 04:10:43;;;;;;;1.17;0.82;;;16.50;72.90;;;;;;5032098;28;20502;-71
2023/10/01 04:15:57;;;;;;;1.10;0.77;;;16.40;72.40;;;;;;5033828;28;20040;-71
2023/10/01 04:18:28;;;;;;;1.92;0.82;;;16.40;73.00;;;;;;5034356;28;20112;-71
2023/10/01 04:23:29;;;;;;;2.13;0.98;;;16.40;73.10;;;;;;5033089;28;20099;-71
2023/10/01 04:26:19;;;;;;;5.25;1.58;;;16.40;73.10;;;;;;5032387;28;20037;-71
2023/10/01 04:29:07;;;;;;;2.00;1.13;;;16.40;72.90;;;;;;5033000;28;20429;-71
2023/10/01 04:34:19;;;;;;;1.70;1.25;;;16.50;73.00;;;;;;5034395;28;20064;-70
2023/10/01 04:39:30;;;;;;;2.38;1.58;;;16.60;72.90;;;;;;5032851;28;20064;-71
2023/10/01 04:41:59;;;;;;;1.13;0.68;;;16.60;73.00;;;;;;5032899;28;20041;-71
2023/10/01 04:44:26;;;;;;;2.30;1.92;;;16.60;73.10;;;;;;5034207;28;20030;-71
2023/10/01 04:46:55;;;;;;;8.45;0.93;;;16.60;73.20;;;;;;5033311;28;20120;-71
2023/10/01 04:49:27;;;;;;;1.63;1.23;;;16.50;73.20;;;;;;5033968;28;20125;-71
2023/10/01 04:52:17;;;;;;;2.28;0.57;;;16.50;73.30;;;;;;5031494;28;20041;-71
2023/10/01 04:54:44;;;;;;;0.77;0.60;;;16.50;74.20;;;;;;5033887;28;20029;-71
2023/10/01 04:57:10;;;;;;;3.08;1.23;;;16.60;73.10;;;;;;5033345;28;20291;-71
2023/10/01 04:59:56;;;;;;;0.98;0.50;;;16.60;73.00;;;;;;5032365;28;20384;-71
2023/10/01 05:02:23;;;;;;;1.27;0.60;;;16.60;73.00;;;;;;5031316;28;20548;-71
2023/10/01 05:04:49;;;;;;;0.77;0.63;;;16.60;72.90;;;;;;5032275;28;20025;-71
2023/10/01 05:07:15;;;;;;;1.63;0.90;;;16.60;73.20;;;;;;5032966;28;20037;-70
2023/10/01 05:09:43;;;;;;;1.75;1.45;;;16.60;73.20;;;;;;5032148;28;20096;-70
2023/10/01 05:12:11;;;;;;;2.38;1.17;;;16.70;72.40;;;;;;5032675;28;20042;-71
2023/10/01 05:14:59;;;;;;;1.95;1.58;;;16.70;72.60;;;;;;5033295;28;20537;-71
2023/10/01 05:17:25;;;;;;;1.13;0.90;;;16.70;73.00;;;;;;5031575;28;20115;-71
2023/10/01 05:19:51;;;;;;;1.35;1.02;;;16.70;73.30;;;;;;5032124;28;20053;-71
2023/10/01 05:22:17;;;;;;;1.17;0.63;;;16.70;73.30;;;;;;5014445;28;20037;-71
2023/10/01 05:24:48;;;;;;;1.85;0.88;;;16.80;73.30;;;;;;5031908;28;20042;-71
2023/10/01 05:29:59;;;;;;;0.68;0.68;;;16.90;73.10;;;;;;5031986;28;20122;-70
2023/10/01 05:32:25;;;;;;;0.85;0.63;;;16.90;73.00;;;;;;5032116;28;20037;-71
2023/10/01 05:34:52;;;;;;;2.42;1.40;;;16.90;73.00;;;;;;5031766;28;20390;-71
2023/10/01 05:37:33;;;;;;;1.85;0.90;;;17.00;73.00;;;;;;5031297;28;20049;-71
2023/10/01 05:39:59;;;;;;;2.53;1.58;;;17.00;72.90;;;;;;5032778;28;20113;-70
2023/10/01 05:42:26;;;;;;;3.15;2.08;;;17.00;72.90;;;;;;5031788;28;20050;-70
2023/10/01 05:44:55;;;;;;;0.65;0.57;;;16.90;72.80;;;;;;5031430;28;20041;-71
2023/10/01 05:47:22;;;;;;;2.85;1.05;;;16.90;72.90;;;;;;5030902;28;20134;-70
2023/10/01 05:49:53;;;;;;;3.10;0.70;;;16.90;72.90;;;;;;5032925;28;20049;-70
2023/10/01 05:52:23;;;;;;;1.00;0.93;;;16.90;73.00;;;;;;5031684;28;20049;-71
2023/10/01 05:54:52;;;;;;;1.77;0.88;;;16.90;72.90;;;;;;5023913;28;20026;-70
2023/10/01 05:57:22;;;;;;;1.98;1.02;;;16.90;73.00;;;;;;5030797;28;20037;-71
2023/10/01 05:59:56;;;;;;;1.70;0.75;;;17.00;72.80;;;;;;5032912;28;20037;-71
2023/10/01 06:02:47;;;;;;;0.75;0.50;;;17.10;72.70;;;;;;5046017;28;20115;-70
2023/10/01 06:05:50;;;;;;;1.67;0.70;;;17.20;72.80;;;;;;5046415;28;20048;-71
2023/10/01 06:11:38;;;;;;;2.80;1.35;;;17.30;72.30;;;;;;5030125;28;20494;-71
2023/10/01 06:14:06;;;;;;;2.00;0.95;;;17.30;72.80;;;;;;5031218;28;20033;-71
2023/10/01 06:16:37;;;;;;;1.33;0.82;;;17.40;72.30;;;;;;5046978;28;20029;-71
2023/10/01 06:19:11;;;;;;;2.53;1.98;;;17.50;73.50;;;;;;5031092;28;20037;-70
2023/10/01 06:21:39;;;;;;;2.45;1.05;;;17.50;72.70;;;;;;5029617;28;20349;-71
2023/10/01 06:24:10;;;;;;;2.33;1.13;;;17.50;72.70;;;;;;5014495;28;20459;-70
2023/10/01 06:26:36;;;;;;;2.33;1.48;;;17.50;72.90;;;;;;5031061;28;20083;-71
2023/10/01 06:29:23;;;;;;;1.70;1.05;;;17.50;72.90;;;;;;5047518;28;20041;-70
2023/10/01 06:31:52;;;;;;;5.05;2.20;;;17.60;73.20;;;;;;5031274;28;20116;-71
2023/10/01 06:34:21;;;;;;;3.13;1.05;;;17.60;73.10;;;;;;5030742;28;20045;-71
2023/10/01 06:37:05;;;;;;;2.38;1.73;;;17.60;73.30;;;;;;5031469;28;20399;-71
2023/10/01 06:39:35;;;;;;;5.00;0.98;;;17.60;73.70;;;;;;5031925;28;20029;-71
2023/10/01 06:42:23;;;;;;;2.85;1.95;;;17.70;73.40;;;;;;5029676;28;20045;-71
2023/10/01 06:44:53;;;;;;;0.75;0.57;;;17.70;73.40;;;;;;5030918;28;20057;-71
2023/10/01 06:47:22;;;;;;;1.58;1.00;;;17.70;73.20;;;;;;5030150;28;20038;-71
2023/10/01 06:49:57;;;;;;;2.47;1.65;;;17.70;73.30;;;;;;5030786;28;20041;-71
2023/10/01 06:52:43;;;;;;;1.13;0.65;;;17.80;73.30;;;;;;5029639;28;20046;-71
2023/10/01 06:55:25;;;;;;;3.65;1.95;;;17.80;73.40;;;;;;5031225;28;20059;-70
2023/10/01 06:58:13;;;;;;;6.25;3.25;;;17.80;73.40;;;;;;5016499;28;20045;-71
2023/10/01 07:00:41;;;;;;;3.05;1.60;;;17.80;74.00;;;;;;5029564;28;20517;-71
2023/10/01 07:05:55;;;;;;;1.50;0.85;;;18.00;73.90;;;;;;5031250;28;20072;-70
2023/10/01 07:08:37;;;;;;;2.05;1.15;;;18.10;73.60;;;;;;5030485;28;20049;-71
2023/10/01 07:11:11;;;;;;;1.50;0.95;;;18.20;73.30;;;;;;5029644;28;20048;-71
2023/10/01 07:13:58;;;;;;;2.58;1.38;;;18.30;72.80;;;;;;5031709;28;20041;-71
2023/10/01 07:16:39;;;;;;;2.38;1.67;;;18.40;72.50;;;;;;5031030;28;20141;-71
2023/10/01 07:19:25;;;;;;;1.60;0.88;;;18.50;72.50;;;;;;5030349;28;20037;-71
2023/10/01 07:21:56;;;;;;;2.28;0.85;;;18.60;72.30;;;;;;5030543;28;20042;-71
2023/10/01 07:24:43;;;;;;;2.53;0.98;;;18.60;72.10;;;;;;5046119;28;20311;-71
2023/10/01 07:27:12;;;;;;;2.72;1.02;;;18.70;72.20;;;;;;5031143;28;20105;-71
2023/10/01 07:29:43;;;;;;;3.55;1.48;;;18.70;72.10;;;;;;5030285;28;20125;-71
2023/10/01 07:32:41;;;;;;;3.40;1.75;;;18.70;72.10;;;;;;5045551;28;20498;-71
2023/10/01 07:35:07;;;;;;;3.33;2.30;;;18.80;72.20;;;;;;5030964;28;20041;-71
2023/10/01 07:37:37;;;;;;;2.10;0.60;;;18.90;71.80;;;;;;5032803;28;20065;-70
2023/10/01 07:40:13;;;;;;;1.98;1.00;;;18.90;71.50;;;;;;5034376;28;20049;-71
2023/10/01 07:42:54;;;;;;;2.70;1.60;;;19.00;71.10;;;;;;5035039;28;20394;-70
2023/10/01 07:45:21;;;;;;;2.85;1.83;;;19.10;71.30;;;;;;5034592;28;20490;-70
2023/10/01 07:50:33;;;;;;;2.58;1.27;;;19.30;70.70;;;;;;5030152;28;20107;-70
2023/10/01 07:53:04;;;;;;;0.93;0.68;;;19.40;70.50;;;;;;5032666;28;20072;-71
2023/10/01 07:55:30;;;;;;;1.67;0.80;;;19.50;70.60;;;;;;5030984;28;20113;-71
2023/10/01 08:00:47;;;;;;;1.67;1.17;;;19.60;69.00;;;;;;5030894;28;20438;-71
2023/10/01 08:05:50;;;;;;;3.65;2.40;;;19.80;68.70;;;;;;5021126;28;20402;-71
2023/10/01 08:08:37;;;;;;;4.70;2.40;;;19.90;67.80;;;;;;5027041;28;20372;-71
2023/10/01 08:11:37;;;;;;;4.50;1.65;;;20.00;67.40;;;;;;5012596;28;20077;-71
2023/10/01 08:13:50;;;;;;;2.53;1.88;;;20.40;66.10;;;;;;5027026;28;20307;-71
2023/10/01 08:16:16;;;;;;;;;;;21.60;64.00;;;;;;5031614;28;20104;-71
2023/10/01 08:18:46;;;;;;;6.55;2.33;;;22.70;60.90;;;;;;5032988;28;20313;-71
2023/10/01 08:23:57;;;;;;;2.78;1.27;;;24.70;54.60;;;;;;5034242;28;20415;-71
2023/10/01 08:29:08;;;;;;;2.85;1.40;;;26.30;49.70;;;;;;5033490;28;20188;-71
2023/10/01 08:34:28;;;;;;;1.02;0.75;;;27.60;44.50;;;;;;5033017;28;20044;-70
2023/10/01 08:37:22;;;;;;;2.75;1.65;;;28.10;42.10;;;;;;5043715;28;20035;-71
2023/10/01 08:39:53;;;;;;;2.17;1.40;;;28.80;40.60;;;;;;5034195;28;20041;-71
2023/10/01 08:42:22;;;;;;;3.10;0.95;;;29.40;38.80;;;;;;5031153;28;20509;-71
2023/10/01 08:44:50;;;;;;;1.38;0.85;;;29.90;37.40;;;;;;5032567;28;20033;-71
2023/10/01 08:50:28;;;;;;;2.15;1.00;;;30.80;34.60;;;;;;5031744;28;20091;-72
2023/10/01 08:53:00;;;;;;;1.88;1.08;;;31.30;33.50;;;;;;5032199;28;20057;-71
2023/10/01 08:58:15;;;;;;;2.90;2.05;;;32.10;31.10;;;;;;5033670;28;20136;-73
2023/10/01 09:01:14;;;;;;;2.88;1.90;;;32.60;30.30;;;;;;5032367;28;20048;-72
2023/10/01 09:03:47;;;;;;;1.70;1.42;;;32.90;29.80;;;;;;5018052;28;20033;-71
2023/10/01 09:06:24;;;;;;;1.45;0.95;;;33.40;28.50;;;;;;5032536;28;20633;-72
2023/10/01 09:08:55;;;;;;;1.77;0.90;;;32.40;29.20;;;;;;5032305;28;20501;-72
2023/10/01 09:11:47;;;;;;;1.88;1.10;;;31.40;30.10;;;;;;5032177;28;20041;-72
2023/10/01 09:14:21;;;;;;;1.92;1.13;;;31.00;31.30;;;;;;5031621;28;20552;-73
2023/10/01 09:16:58;;;;;;;2.15;0.88;;;30.40;31.40;;;;;;5030128;28;20029;-72
2023/10/01 09:19:35;;;;;;;2.05;1.35;;;29.80;32.30;;;;;;5016550;28;20497;-73
2023/10/01 09:25:25;;;;;;;2.28;1.33;;;28.70;32.00;;;;;;5031696;28;20078;-72
2023/10/01 09:33:51;;;;;;;2.45;1.23;;;27.80;35.20;;;;;;5033074;28;20048;-71
2023/10/01 09:36:45;;;;;;;1.27;0.85;;;27.60;35.80;;;;;;5032435;28;20091;-72
2023/10/01 09:39:13;;;;;;;1.08;0.88;;;27.60;35.80;;;;;;5032347;28;20137;-72
2023/10/01 09:41:43;;;;;;;2.05;0.88;;;27.50;35.60;;;;;;5013935;28;20092;-72
2023/10/01 09:44:14;;;;;;;2.22;1.83;;;27.50;36.00;;;;;;5031484;28;20037;-72
2023/10/01 09:46:42;;;;;;;3.22;1.75;;;27.40;36.30;;;;;;5026483;28;20577;-72
2023/10/01 09:49:09;;;;;;;2.00;1.60;;;27.30;37.60;;;;;;5031313;28;20049;-72
2023/10/01 09:51:41;;;;;;;2.63;1.95;;;27.20;37.30;;;;;;5030306;28;20038;-71
2023/10/01 09:54:13;;;;;;;0.75;0.60;;;27.20;37.90;;;;;;5048075;28;20061;-71
2023/10/01 09:59:11;;;;;;;0.95;0.50;;;27.10;36.90;;;;;;5032559;28;20174;-72
2023/10/01 10:01:42;;;;;;;2.40;1.52;;;27.20;37.70;;;;;;5028941;28;20617;-71
2023/10/01 10:04:11;;;;;;;1.38;0.95;;;27.20;37.70;;;;;;5047300;28;20406;-72
2023/10/01 10:06:42;;;;;;;1.20;0.57;;;27.40;37.70;;;;;;5031821;28;20041;-73
2023/10/01 10:09:29;;;;;;;2.92;1.85;;;27.50;37.80;;;;;;5015056;28;20398;-71
2023/10/01 10:11:55;;;;;;;0.65;0.52;;;27.50;37.40;;;;;;5030107;28;20446;-72
2023/10/01 10:17:18;;;;;;;1.77;0.55;;;28.30;36.60;;;;;;5031492;28;20041;-72
2023/10/01 10:20:16;;;;;;;2.25;1.02;;;28.00;36.10;;;;;;5031425;28;20542;-71
2023/10/01 10:23:29;;;;;;;1.88;0.90;;;28.10;37.30;;;;;;5033471;28;20091;-72
2023/10/01 10:29:57;;;;;;;1.15;0.63;;;28.10;36.00;;;;;;5045337;28;20076;-72
2023/10/01 10:32:26;;;;;;;3.95;2.03;;;28.10;36.80;;;;;;5042541;28;20036;-71
2023/10/01 10:35:13;;;;;;;1.77;1.35;;;28.30;37.10;;;;;;5032130;28;20038;-72
2023/10/01 10:37:44;;;;;;;1.40;0.98;;;28.30;36.20;;;;;;5042248;28;20040;-73
2023/10/01 10:43:03;;;;;;;0.70;0.60;;;28.40;36.30;;;;;;5030560;28;20443;-72
2023/10/01 10:45:46;;;;;;;3.05;1.30;;;28.40;35.80;;;;;;5030910;28;20115;-72
2023/10/01 10:48:16;;;;;;;7.15;1.63;;;28.20;35.80;;;;;;5013854;28;20061;-72
2023/10/01 10:51:02;;;;;;;1.50;0.98;;;27.90;36.90;;;;;;5029561;28;20036;-72
2023/10/01 10:53:29;;;;;;;3.77;0.87;;;27.70;36.80;;;;;;5030492;28;20493;-71
2023/10/01 10:56:15;;;;;;;1.38;1.08;;;27.80;37.40;;;;;;5046340;28;21019;-72
2023/10/01 10:59:03;;;;;;;2.33;1.30;;;27.80;36.80;;;;;;5030310;28;20137;-72
2023/10/01 11:04:16;;;;;;;1.10;0.73;;;27.70;36.20;;;;;;5032019;28;20049;-72
2023/10/01 11:06:43;;;;;;;0.70;0.60;;;28.00;37.20;;;;;;5031108;28;20025;-72
2023/10/01 11:09:30;;;;;;;0.90;0.55;;;28.30;35.70;;;;;;5029181;28;20095;-73
2023/10/01 11:12:22;;;;;;;1.75;1.38;;;28.50;34.90;;;;;;5026452;28;20574;-72
2023/10/01 11:18:11;;;;;;;1.40;0.90;;;28.60;34.40;;;;;;5028689;28;20041;-73
2023/10/01 11:20:45;;;;;;;1.33;1.00;;;28.60;34.80;;;;;;5029827;28;20064;-72
2023/10/01 11:23:16;;;;;;;1.90;0.50;;;28.80;33.90;;;;;;5029849;28;20046;-72
2023/10/01 11:25:47;;;;;;;1.33;0.90;;;28.80;33.60;;;;;;5030103;28;20030;-72
2023/10/01 11:28:13;;;;;;;2.63;0.77;;;28.80;34.50;;;;;;5015694;28;20038;-72
2023/10/01 11:30:43;;;;;;;2.80;1.85;;;29.40;33.30;;;;;;5013201;28;20045;-72
2023/10/01 11:36:19;;;;;;;2.95;1.10;;;29.70;32.00;;;;;;5030973;28;20037;-72
2023/10/01 11:38:45;;;;;;;1.25;0.70;;;29.50;32.60;;;;;;5033604;28;20088;-72
2023/10/01 11:41:13;;;;;;;1.58;1.00;;;29.70;32.30;;;;;;5032263;28;20037;-72
2023/10/01 11:44:02;;;;;;;2.78;1.23;;;29.60;32.10;;;;;;5033790;28;20049;-72
2023/10/01 11:46:57;;;;;;;1.20;0.70;;;29.40;34.10;;;;;;5034422;28;20025;-72
2023/10/01 11:49:39;;;;;;;1.35;1.02;;;29.80;32.70;;;;;;5033757;28;20084;-72
2023/10/01 11:52:25;;;;;;;0.50;0.43;;;30.40;31.00;;;;;;5034033;28;20034;-72
2023/10/01 11:54:54;;;;;;;2.43;1.53;;;30.90;30.30;;;;;;5035107;28;20048;-72
2023/10/01 11:57:23;;;;;;;2.15;0.82;;;30.60;30.00;;;;;;5033052;28;20059;-72
2023/10/01 11:59:55;;;;;;;1.55;1.10;;;30.20;31.70;;;;;;5033139;28;20043;-72
2023/10/01 12:02:46;;;;;;;5.50;1.75;;;30.10;31.50;;;;;;5032449;28;20037;-72
2023/10/01 12:05:13;;;;;;;0.95;0.63;;;29.80;31.70;;;;;;5034042;28;20115;-73
2023/10/01 12:07:45;;;;;;;1.10;1.00;;;29.40;32.80;;;;;;5033370;28;20554;-72
2023/10/01 12:10:31;;;;;;;1.05;0.95;;;29.60;32.20;;;;;;5032504;28;20052;-72
2023/10/01 12:12:59;;;;;;;1.17;0.85;;;29.90;31.60;;;;;;5033392;28;20037;-72
2023/10/01 12:15:34;;;;;;;0.82;0.57;;;29.80;31.90;;;;;;5032303;28;20072;-72
2023/10/01 12:18:19;;;;;;;0.57;0.50;;;29.80;32.50;;;;;;5034267;28;20042;-72
2023/10/01 12:20:54;;;;;;;1.52;1.10;;;29.80;32.30;;;;;;5032030;28;20383;-72
2023/10/01 12:23:22;;;;;;;3.80;1.83;;;29.80;33.30;;;;;;5016617;28;20540;-72
2023/10/01 12:25:52;;;;;;;3.00;1.75;;;30.80;31.20;;;;;;5033185;28;20057;-72
2023/10/01 12:28:24;;;;;;;7.35;0.70;;;31.60;29.60;;;;;;5030431;28;20108;-72
2023/10/01 12:31:09;;;;;;;2.70;1.23;;;30.90;29.60;;;;;;5012797;28;20045;-73
2023/10/01 12:33:43;;;;;;;0.85;0.73;;;30.70;31.00;;;;;;5030718;28;20037;-73
2023/10/01 12:36:31;;;;;;;1.75;1.27;;;30.00;32.50;;;;;;5014524;28;20056;-72
2023/10/01 12:44:30;;;;;;;5.82;1.70;;;32.20;29.60;;;;;;5013253;28;20046;-72
2023/10/01 12:49:58;;;;;;;1.23;0.98;;;34.90;26.00;;;;;;5014459;28;20478;-73
2023/10/01 12:52:30;;;;;;;4.35;1.80;;;35.60;24.60;;;;;;5012879;28;20426;-72
2023/10/01 12:55:00;;;;;;;1.50;0.90;;;34.30;26.60;;;;;;5012929;28;20045;-73
2023/10/01 12:57:33;;;;;;;1.13;1.02;;;33.00;27.90;;;;;;5013373;28;20793;-72
2023/10/01 13:02:45;;;;;;;1.58;0.88;;;33.50;27.40;;;;;;4993685;28;20057;-72
2023/10/01 13:05:21;;;;;;;1.55;1.25;;;34.30;26.30;;;;;;4993705;28;20030;-73
2023/10/01 13:07:50;;;;;;;2.50;1.65;;;33.80;26.80;;;;;;4977984;28;20100;-73
2023/10/01 13:10:18;;;;;;;0.45;0.45;;;34.50;26.20;;;;;;4991889;28;20506;-73
2023/10/01 13:13:05;;;;;;;1.13;0.50;;;36.80;23.60;;;;;;4992742;28;20034;-73
2023/10/01 13:15:33;;;;;;;0.85;0.75;;;38.10;22.10;;;;;;4992423;28;20031;-73
2023/10/01 13:18:02;;;;;;;0.68;0.60;;;39.10;21.90;;;;;;4992722;28;20049;-73
2023/10/01 13:20:29;;;;;;;2.22;1.42;;;40.30;20.40;;;;;;4991572;28;20046;-73
2023/10/01 13:22:59;;;;;;;1.85;1.25;;;41.20;20.20;;;;;;4992627;28;20043;-73
2023/10/01 13:25:26;;;;;;;2.22;1.40;;;41.70;18.60;;;;;;4992150;28;20495;-73
2023/10/01 13:28:18;;;;;;;2.72;1.15;;;42.20;18.20;;;;;;4993734;28;20034;-74
2023/10/01 13:33:53;;;;;;;0.95;0.65;;;43.30;16.80;;;;;;4992522;28;20396;-73
2023/10/01 13:39:12;;;;;;;1.15;0.82;;;44.00;16.40;;;;;;4993807;28;20073;-73
2023/10/01 14:09:09;;;;;;;3.45;2.88;;;44.30;15.60;;;;;;4993277;28;20390;-73
2023/10/01 14:11:39;;;;;;;0.80;0.80;;;44.50;15.30;;;;;;4992160;28;20050;-73
2023/10/01 14:14:08;;;;;;;1.33;1.17;;;44.30;15.50;;;;;;4993032;28;20039;-73
2023/10/01 14:16:34;;;;;;;1.35;0.82;;;44.50;15.30;;;;;;4991116;28;20038;-73
2023/10/01 14:19:15;;;;;;;2.35;1.48;;;44.30;15.50;;;;;;4991682;28;20043;-73
2023/10/01 14:21:41;;;;;;;0.88;0.65;;;44.10;15.40;;;;;;4990165;28;20065;-73
2023/10/01 14:26:52;;;;;;;1.52;1.08;;;43.50;15.50;;;;;;4992387;28;20033;-74
2023/10/01 14:32:10;;;;;;;1.67;0.80;;;43.20;15.80;;;;;;4990380;28;20049;-73
2023/10/01 14:34:36;;;;;;;1.52;1.02;;;43.20;16.50;;;;;;4991270;28;20049;-73
2023/10/01 14:37:02;;;;;;;2.00;1.30;;;42.90;16.00;;;;;;5002245;28;20045;-73
2023/10/01 14:39:31;;;;;;;2.13;1.33;;;41.80;16.90;;;;;;5008656;28;20037;-73
2023/10/01 14:41:57;;;;;;;1.70;1.00;;;41.50;17.50;;;;;;5009784;28;20073;-74
2023/10/01 14:44:26;;;;;;;1.23;0.95;;;41.40;17.40;;;;;;5012242;28;20077;-73
2023/10/01 14:46:54;;;;;;;2.30;1.60;;;41.30;17.30;;;;;;5011148;28;20030;-73
2023/10/01 14:49:23;;;;;;;2.38;1.45;;;41.20;17.60;;;;;;5011673;28;20049;-73
2023/10/01 14:51:53;;;;;;;1.52;1.23;;;41.10;17.60;;;;;;5011397;28;20038;-73
2023/10/01 14:54:19;;;;;;;1.73;1.00;;;40.80;17.60;;;;;;5011733;28;20077;-73
2023/10/01 14:56:56;;;;;;;2.33;1.42;;;40.60;17.50;;;;;;4998661;28;20488;-74
2023/10/01 14:59:30;;;;;;;1.00;0.88;;;40.60;17.70;;;;;;5009292;28;20045;-73
2023/10/01 15:01:57;;;;;;;1.58;1.13;;;40.40;18.00;;;;;;5010974;28;20053;-74
2023/10/01 15:07:07;;;;;;;1.88;1.23;;;39.90;18.80;;;;;;5011533;28;20108;-73
2023/10/01 15:09:36;;;;;;;1.33;0.95;;;39.50;19.30;;;;;;5011919;28;20034;-73
2023/10/01 15:12:04;;;;;;;4.80;2.10;;;39.20;19.90;;;;;;4993344;28;20030;-73
2023/10/01 15:14:32;;;;;;;1.85;1.35;;;39.10;19.80;;;;;;4994314;28;20034;-73
2023/10/01 15:17:01;;;;;;;2.00;1.42;;;38.90;19.70;;;;;;5011391;28;20030;-73
2023/10/01 15:19:27;;;;;;;1.33;1.13;;;38.60;20.40;;;;;;5010548;28;20042;-74
2023/10/01 15:22:02;;;;;;;1.75;1.30;;;38.00;21.20;;;;;;5009614;28;20054;-73
2023/10/01 15:24:29;;;;;;;3.42;1.58;;;37.50;21.30;;;;;;5019575;28;20483;-73
2023/10/01 15:29:52;;;;;;;0.32;0.32;;;37.10;21.90;;;;;;5031550;28;20544;-73
2023/10/01 15:32:19;;;;;;;1.30;1.00;;;36.30;22.50;;;;;;5030629;28;20124;-73
2023/10/01 15:34:45;;;;;;;1.25;0.95;;;35.00;24.00;;;;;;5031728;28;20080;-73
2023/10/01 15:37:11;;;;;;;2.05;1.85;;;34.00;25.20;;;;;;5029676;28;20406;-73
2023/10/01 15:39:39;;;;;;;6.13;2.22;;;33.20;26.60;;;;;;5031521;28;20442;-73
2023/10/01 15:42:24;;;;;;;4.35;1.45;;;32.60;27.20;;;;;;5030464;28;20033;-72
2023/10/01 15:45:18;;;;;;;1.20;1.10;;;32.10;28.30;;;;;;5031673;28;20044;-73
2023/10/01 15:50:38;;;;;;;2.97;2.05;;;30.90;29.20;;;;;;5029303;28;20061;-73